createdAt,value
2023-04-21T00:02:07.569Z,101541.66
2023-04-21T00:04:37.155Z,101547.31
2023-04-21T00:07:06.750Z,101553.66
2023-04-21T00:09:38.815Z,101556.03
2023-04-21T00:12:08.459Z,101542.69
2023-04-21T00:14:38.480Z,101542.59
2023-04-21T00:17:08.142Z,101544.06
2023-04-21T00:19:37.946Z,101544.72
2023-04-21T00:22:12.153Z,101535.16
2023-04-21T00:24:44.292Z,101537.41
2023-04-21T00:27:15.681Z,101543.81
2023-04-21T00:29:45.258Z,101536.25
2023-04-21T00:32:14.918Z,101534.41
2023-04-21T00:34:44.324Z,101539.53
2023-04-21T00:37:13.729Z,101538.00
2023-04-21T00:39:45.680Z,101538.28
2023-04-21T00:42:18.205Z,101536.03
2023-04-21T00:44:47.736Z,101533.72
2023-04-21T00:47:17.056Z,101538.63
2023-04-21T00:49:46.427Z,101533.41
2023-04-21T00:52:17.306Z,101534.34
2023-04-21T00:54:49.467Z,101534.56
2023-04-21T00:57:19.202Z,101538.00
2023-04-21T00:59:49.959Z,101535.31
2023-04-21T01:02:20.051Z,101532.47
2023-04-21T01:04:49.829Z,101526.66
2023-04-21T01:07:19.236Z,101527.06
2023-04-21T01:09:51.296Z,101530.53
2023-04-21T01:12:20.621Z,101528.34
2023-04-21T01:14:50.728Z,101526.22
2023-04-21T01:17:20.636Z,101515.56
2023-04-21T01:19:50.348Z,101516.00
2023-04-21T01:22:22.340Z,101510.94
2023-04-21T01:24:52.113Z,101514.47
2023-04-21T01:27:23.425Z,101516.00
2023-04-21T01:29:59.274Z,101513.56
2023-04-21T01:32:32.031Z,101526.00
2023-04-21T01:35:02.768Z,101516.97
2023-04-21T01:37:36.107Z,101511.00
2023-04-21T01:40:09.807Z,101507.44
2023-04-21T01:42:42.849Z,101505.41
2023-04-21T01:45:13.591Z,101512.19
2023-04-21T01:47:43.217Z,101510.00
2023-04-21T01:50:13.465Z,101505.41
2023-04-21T01:52:45.464Z,101512.50
2023-04-21T01:55:14.979Z,101506.00
2023-04-21T01:57:44.341Z,101501.78
2023-04-21T02:00:15.189Z,101501.41
2023-04-21T02:02:44.714Z,101505.91
2023-04-21T02:05:14.299Z,101502.41
2023-04-21T02:07:46.527Z,101494.94
2023-04-21T02:10:16.262Z,101495.91
2023-04-21T02:12:45.645Z,101507.44
2023-04-21T02:15:15.420Z,101499.22
2023-04-21T02:17:45.582Z,101488.53
2023-04-21T02:20:15.304Z,101505.78
2023-04-21T02:22:47.270Z,101501.44
2023-04-21T02:25:16.701Z,101492.19
2023-04-21T02:27:46.066Z,101498.44
2023-04-21T02:30:15.691Z,101501.28
2023-04-21T02:32:45.327Z,101501.63
2023-04-21T02:35:14.836Z,101497.38
2023-04-21T02:37:46.883Z,101498.78
2023-04-21T02:40:16.675Z,101494.97
2023-04-21T02:42:46.122Z,101502.06
2023-04-21T02:45:15.817Z,101497.72
2023-04-21T02:47:45.355Z,101500.69
2023-04-21T02:50:16.720Z,101500.69
2023-04-21T02:52:48.733Z,101485.00
2023-04-21T02:55:18.158Z,101494.66
2023-04-21T02:57:47.772Z,101493.28
2023-04-21T03:00:18.115Z,101495.38
2023-04-21T03:02:47.650Z,101495.59
2023-04-21T03:05:17.835Z,101489.19
2023-04-21T03:07:50.181Z,101486.75
2023-04-21T03:10:19.716Z,101484.66
2023-04-21T03:12:49.134Z,101489.69
2023-04-21T03:15:19.693Z,101488.72
2023-04-21T03:17:49.134Z,101482.34
2023-04-21T03:20:18.518Z,101483.41
2023-04-21T03:22:50.492Z,101492.38
2023-04-21T03:25:19.865Z,101488.13
2023-04-21T03:27:49.274Z,101484.59
2023-04-21T03:30:18.867Z,101487.31
2023-04-21T03:32:48.239Z,101483.56
2023-04-21T03:35:17.618Z,101492.19
2023-04-21T03:37:47.353Z,101488.06
2023-04-21T03:40:19.505Z,101484.81
2023-04-21T03:42:49.004Z,101489.50
2023-04-21T03:45:19.741Z,101484.34
2023-04-21T03:47:49.126Z,101481.44
2023-04-21T03:50:18.492Z,101478.78
2023-04-21T03:52:47.795Z,101481.75
2023-04-21T03:55:19.979Z,101478.09
2023-04-21T03:57:49.373Z,101480.47
2023-04-21T04:00:19.900Z,101482.91
2023-04-21T04:02:49.449Z,101480.84
2023-04-21T04:05:19.025Z,101484.94
2023-04-21T04:07:48.433Z,101480.47
2023-04-21T04:10:20.354Z,101478.06
2023-04-21T04:12:49.688Z,101473.00
2023-04-21T04:15:19.055Z,101480.16
2023-04-21T04:17:50.248Z,101474.03
2023-04-21T04:20:19.935Z,101486.81
2023-04-21T04:22:49.298Z,101481.22
2023-04-21T04:25:21.589Z,101481.66
2023-04-21T04:27:51.848Z,101481.97
2023-04-21T04:30:24.094Z,101483.25
2023-04-21T04:32:53.443Z,101480.84
2023-04-21T04:35:23.070Z,101481.66
2023-04-21T04:37:52.525Z,101478.47
2023-04-21T04:40:24.653Z,101479.53
2023-04-21T04:42:55.035Z,101473.41
2023-04-21T04:45:26.373Z,101477.13
2023-04-21T04:47:55.715Z,101478.84
2023-04-21T04:50:25.077Z,101473.63
2023-04-21T04:52:54.556Z,101478.19
2023-04-21T04:55:30.732Z,101481.06
2023-04-21T04:58:00.125Z,101478.78
2023-04-21T05:00:29.508Z,101485.81
2023-04-21T05:02:59.034Z,101489.31
2023-04-21T05:05:28.703Z,101489.44
2023-04-21T05:07:58.076Z,101489.47
2023-04-21T05:10:29.995Z,101485.19
2023-04-21T05:12:59.428Z,101487.06
2023-04-21T05:15:28.982Z,101488.91
2023-04-21T05:17:58.706Z,101487.84
2023-04-21T05:20:28.491Z,101484.13
2023-04-21T05:22:57.791Z,101488.31
2023-04-21T05:25:30.158Z,101481.63
2023-04-21T05:27:59.783Z,101488.69
2023-04-21T05:30:29.350Z,101487.66
2023-04-21T05:33:04.799Z,101485.75
2023-04-21T05:35:36.571Z,101488.25
2023-04-21T05:38:07.259Z,101489.28
2023-04-21T05:40:39.241Z,101491.47
2023-04-21T05:43:10.466Z,101490.53
2023-04-21T05:45:42.239Z,101479.41
2023-04-21T05:48:13.464Z,101489.91
2023-04-21T05:50:43.125Z,101495.47
2023-04-21T05:53:12.553Z,101491.09
2023-04-21T05:55:44.479Z,101487.38
2023-04-21T05:58:13.907Z,101487.63
2023-04-21T06:00:43.274Z,101488.63
2023-04-21T06:03:12.877Z,101491.44
2023-04-21T06:05:42.377Z,101484.88
2023-04-21T06:08:11.794Z,101491.84
2023-04-21T06:10:44.080Z,101477.19
2023-04-21T06:13:13.405Z,101487.88
2023-04-21T06:15:42.856Z,101491.56
2023-04-21T06:18:12.302Z,101481.28
2023-04-21T06:20:42.209Z,101475.78
2023-04-21T06:23:11.656Z,101484.19
2023-04-21T06:25:41.016Z,101483.16
2023-04-21T06:28:12.939Z,101474.47
2023-04-21T06:30:42.511Z,101477.84
2023-04-21T06:33:11.833Z,101487.41
2023-04-21T06:35:41.200Z,101491.13
2023-04-21T06:38:11.359Z,101488.63
2023-04-21T06:40:40.813Z,101484.28
2023-04-21T06:43:12.726Z,101483.25
2023-04-21T06:45:42.059Z,101483.44
2023-04-21T06:48:11.434Z,101489.34
2023-04-21T06:50:41.258Z,101477.34
2023-04-21T06:53:12.879Z,101475.22
2023-04-21T06:55:42.199Z,101476.78
2023-04-21T06:58:14.128Z,101470.38
2023-04-21T07:00:43.612Z,101459.81
2023-04-21T07:03:13.160Z,101461.63
2023-04-21T07:05:42.670Z,101465.34
2023-04-21T07:08:12.020Z,101458.28
2023-04-21T07:10:41.679Z,101465.22
2023-04-21T07:13:11.173Z,101454.81
2023-04-21T07:15:43.180Z,101452.28
2023-04-21T07:18:12.546Z,101454.75
2023-04-21T07:20:42.145Z,101451.63
2023-04-21T07:23:11.692Z,101451.22
2023-04-21T07:25:41.143Z,101461.59
2023-04-21T07:28:11.245Z,101453.31
2023-04-21T07:30:43.310Z,101449.50
2023-04-21T07:33:12.749Z,101451.81
2023-04-21T07:35:42.157Z,101454.59
2023-04-21T07:38:12.156Z,101449.31
2023-04-21T07:40:41.626Z,101459.94
2023-04-21T07:43:11.157Z,101448.47
2023-04-21T07:45:43.137Z,101446.22
2023-04-21T07:48:12.456Z,101458.44
2023-04-21T07:50:42.673Z,101444.81
2023-04-21T07:53:12.040Z,101438.69
2023-04-21T07:55:41.454Z,101439.16
2023-04-21T07:58:11.102Z,101437.88
2023-04-21T08:00:43.131Z,101432.31
2023-04-21T08:03:12.588Z,101431.41
2023-04-21T08:05:42.348Z,101432.25
2023-04-21T08:08:12.236Z,101429.91
2023-04-21T08:10:41.623Z,101434.22
2023-04-21T08:13:11.184Z,101434.00
2023-04-21T08:15:43.404Z,101426.31
2023-04-21T08:18:12.792Z,101428.44
2023-04-21T08:20:42.135Z,101426.94
2023-04-21T08:23:11.676Z,101426.56
2023-04-21T08:25:41.061Z,101415.06
2023-04-21T08:28:10.656Z,101420.09
2023-04-21T08:30:43.305Z,101422.00
2023-04-21T08:33:14.051Z,101405.66
2023-04-21T08:35:55.026Z,101416.69
2023-04-21T08:38:31.058Z,101413.09
2023-04-21T08:41:04.462Z,101410.31
2023-04-21T08:43:34.007Z,101413.59
2023-04-21T08:46:10.268Z,101410.50
2023-04-21T08:48:41.205Z,101406.22
2023-04-21T08:51:12.590Z,101406.34
2023-04-21T08:53:44.783Z,101401.19
2023-04-21T08:56:14.245Z,101403.75
2023-04-21T08:58:44.167Z,101389.13
2023-04-21T09:01:16.453Z,101401.94
2023-04-21T09:03:46.383Z,101399.03
2023-04-21T09:06:16.725Z,101406.53
2023-04-21T09:08:56.237Z,101390.66
2023-04-21T09:11:26.303Z,101399.44
2023-04-21T09:14:00.521Z,101396.34
2023-04-21T09:16:35.902Z,101389.97
2023-04-21T09:19:05.695Z,101392.06
2023-04-21T09:21:35.203Z,101387.63
2023-04-21T09:24:08.750Z,101384.81
2023-04-21T09:26:38.390Z,101385.16
2023-04-21T09:29:09.635Z,101386.47
2023-04-21T09:31:42.352Z,101383.16
2023-04-21T09:34:21.312Z,101377.25
2023-04-21T09:36:50.961Z,101374.97
2023-04-21T09:39:38.242Z,101378.03
2023-04-21T09:42:13.641Z,101381.00
2023-04-21T09:44:50.921Z,101375.22
2023-04-21T09:47:32.398Z,101370.63
2023-04-21T09:50:02.741Z,101360.22
2023-04-21T09:52:33.808Z,101363.94
2023-04-21T09:55:04.709Z,101360.50
2023-04-21T09:57:35.510Z,101359.31
2023-04-21T10:00:08.753Z,101360.22
2023-04-21T10:02:46.284Z,101353.16
2023-04-21T10:05:16.165Z,101359.13
2023-04-21T10:07:47.340Z,101339.69
2023-04-21T10:10:23.093Z,101352.66
2023-04-21T10:12:53.710Z,101347.22
2023-04-21T10:15:35.000Z,101343.13
2023-04-21T10:18:18.874Z,101336.06
2023-04-21T10:20:56.531Z,101329.28
2023-04-21T10:23:34.406Z,101329.03
2023-04-21T10:26:14.008Z,101326.06
2023-04-21T10:28:57.468Z,101324.38
2023-04-21T10:31:34.291Z,101311.09
2023-04-21T10:34:24.350Z,101317.34
2023-04-21T10:37:16.434Z,101307.03
2023-04-21T10:39:48.505Z,101304.00
2023-04-21T10:42:29.178Z,101313.53
2023-04-21T10:45:19.336Z,101298.84
2023-04-21T10:47:51.631Z,101308.38
2023-04-21T10:50:26.258Z,101293.47
2023-04-21T10:52:58.552Z,101292.88
2023-04-21T10:55:32.671Z,101288.28
2023-04-21T10:58:05.819Z,101292.09
2023-04-21T11:00:36.069Z,101291.81
2023-04-21T11:03:08.137Z,101283.63
2023-04-21T11:05:42.645Z,101275.22
2023-04-21T11:08:16.792Z,101283.66
2023-04-21T11:10:56.055Z,101272.25
2023-04-21T11:13:27.361Z,101258.66
2023-04-21T11:16:04.733Z,101269.78
2023-04-21T11:18:41.992Z,101267.34
2023-04-21T11:21:22.210Z,101251.59
2023-04-21T11:23:56.337Z,101259.47
2023-04-21T11:26:36.928Z,101248.88
2023-04-21T11:29:08.334Z,101254.03
2023-04-21T11:31:38.930Z,101253.47
2023-04-21T11:34:09.537Z,101241.47
2023-04-21T11:36:43.941Z,101248.75
2023-04-21T11:39:16.014Z,101244.72
2023-04-21T11:41:47.216Z,101239.63
2023-04-21T11:44:32.998Z,101231.41
2023-04-21T11:47:02.866Z,101228.69
2023-04-21T11:49:32.550Z,101227.59
2023-04-21T11:52:04.757Z,101214.25
2023-04-21T11:54:34.403Z,101218.44
2023-04-21T11:57:04.110Z,101211.16
2023-04-21T11:59:34.683Z,101210.66
2023-04-21T12:02:04.331Z,101210.44
2023-04-21T12:04:34.955Z,101201.75
2023-04-21T12:07:07.245Z,101194.34
2023-04-21T12:09:39.435Z,101203.06
2023-04-21T12:12:09.258Z,101199.94
2023-04-21T12:14:39.591Z,101192.63
2023-04-21T12:17:09.978Z,101190.72
2023-04-21T12:19:42.020Z,101195.00
2023-04-21T12:22:15.173Z,101188.44
2023-04-21T12:24:45.275Z,101184.94
2023-04-21T12:27:15.844Z,101189.25
2023-04-21T12:29:45.463Z,101181.88
2023-04-21T12:32:15.260Z,101180.53
2023-04-21T12:34:44.817Z,101186.47
2023-04-21T12:37:17.073Z,101164.78
2023-04-21T12:39:46.714Z,101151.94
2023-04-21T12:42:16.744Z,101173.41
2023-04-21T12:44:46.490Z,101173.69
2023-04-21T12:47:16.136Z,101178.09
2023-04-21T12:49:45.801Z,101178.59
2023-04-21T12:52:17.986Z,101158.47
2023-04-21T12:54:47.600Z,101162.31
2023-04-21T12:57:17.841Z,101152.72
2023-04-21T12:59:47.574Z,101154.38
2023-04-21T13:02:17.306Z,101156.00
2023-04-21T13:04:47.102Z,101150.28
2023-04-21T13:07:21.526Z,101157.00
2023-04-21T13:09:51.136Z,101149.84
2023-04-21T13:12:20.721Z,101155.59
2023-04-21T13:14:50.495Z,101140.38
2023-04-21T13:17:20.399Z,101128.50
2023-04-21T13:19:50.151Z,101130.09
2023-04-21T13:22:22.461Z,101125.34
2023-04-21T13:24:52.062Z,101129.44
2023-04-21T13:27:21.694Z,101131.22
2023-04-21T13:29:51.267Z,101117.41
2023-04-21T13:32:21.754Z,101119.22
2023-04-21T13:34:51.396Z,101115.38
2023-04-21T13:37:23.591Z,101112.13
2023-04-21T13:39:53.193Z,101113.41
2023-04-21T13:42:22.768Z,101119.53
2023-04-21T13:44:52.101Z,101109.75
2023-04-21T13:47:21.502Z,101096.38
2023-04-21T13:49:51.634Z,101092.59
2023-04-21T13:52:23.675Z,101090.88
2023-04-21T13:54:53.733Z,101092.78
2023-04-21T13:57:25.050Z,101087.84
2023-04-21T13:59:55.167Z,101084.34
2023-04-21T14:02:25.924Z,101080.69
2023-04-21T14:04:56.572Z,101083.41
2023-04-21T14:07:28.937Z,101073.34
2023-04-21T14:09:58.341Z,101075.38
2023-04-21T14:12:28.274Z,101067.41
2023-04-21T14:14:57.658Z,101054.47
2023-04-21T14:17:27.099Z,101061.03
2023-04-21T14:19:56.481Z,101054.53
2023-04-21T14:22:29.316Z,101061.03
2023-04-21T14:24:58.778Z,101042.56
2023-04-21T14:27:28.159Z,101055.03
2023-04-21T14:29:59.486Z,101051.75
2023-04-21T14:32:29.027Z,101034.06
2023-04-21T14:34:59.373Z,101025.00
2023-04-21T14:37:31.338Z,101037.81
2023-04-21T14:40:01.126Z,101038.13
2023-04-21T14:42:30.637Z,101046.84
2023-04-21T14:45:00.007Z,101031.78
2023-04-21T14:47:29.461Z,101022.03
2023-04-21T14:49:58.869Z,101035.34
2023-04-21T14:52:31.078Z,101032.34
2023-04-21T14:55:01.298Z,101029.34
2023-04-21T14:57:30.756Z,101018.78
2023-04-21T15:00:00.372Z,101030.28
2023-04-21T15:02:30.941Z,101024.28
2023-04-21T15:05:03.778Z,101021.50
2023-04-21T15:07:36.224Z,101013.06
2023-04-21T15:10:05.812Z,101004.78
2023-04-21T15:12:36.584Z,101010.00
2023-04-21T15:15:06.725Z,101011.66
2023-04-21T15:17:36.194Z,101001.06
2023-04-21T15:20:05.745Z,100988.31
2023-04-21T15:22:37.963Z,100987.16
2023-04-21T15:25:08.249Z,100990.38
2023-04-21T15:27:37.596Z,100991.31
2023-04-21T15:30:07.800Z,100983.84
2023-04-21T15:32:37.171Z,100983.09
2023-04-21T15:35:07.354Z,100980.59
2023-04-21T15:37:39.304Z,100973.19
2023-04-21T15:40:12.282Z,100980.78
2023-04-21T15:42:41.646Z,100969.41
2023-04-21T15:45:12.510Z,100971.31
2023-04-21T15:47:41.973Z,100971.53
2023-04-21T15:50:12.099Z,100966.63
2023-04-21T15:52:44.575Z,100969.88
2023-04-21T15:55:15.409Z,100969.94
2023-04-21T15:57:45.186Z,100964.25
2023-04-21T16:00:16.768Z,100957.47
2023-04-21T16:02:46.525Z,100960.19
2023-04-21T16:05:16.481Z,100951.81
2023-04-21T16:07:48.823Z,100943.34
2023-04-21T16:10:18.549Z,100949.81
2023-04-21T16:12:51.092Z,100945.19
2023-04-21T16:15:24.413Z,100944.09
2023-04-21T16:17:54.750Z,100941.13
2023-04-21T16:20:24.449Z,100941.69
2023-04-21T16:22:56.755Z,100935.97
2023-04-21T16:25:27.413Z,100945.75
2023-04-21T16:27:57.235Z,100932.13
2023-04-21T16:30:27.121Z,100935.75
2023-04-21T16:32:56.806Z,100932.44
2023-04-21T16:35:26.637Z,100934.63
2023-04-21T16:37:59.508Z,100925.97
2023-04-21T16:40:29.356Z,100922.94
2023-04-21T16:42:59.008Z,100920.56
2023-04-21T16:45:28.737Z,100930.06
2023-04-21T16:47:58.656Z,100932.25
2023-04-21T16:50:29.634Z,100921.06
2023-04-21T16:53:03.418Z,100922.25
2023-04-21T16:55:33.114Z,100917.03
2023-04-21T16:58:02.665Z,100921.13
2023-04-21T17:00:32.957Z,100925.25
2023-04-21T17:03:02.654Z,100917.63
2023-04-21T17:05:32.277Z,100916.81
2023-04-21T17:08:05.624Z,100918.13
2023-04-21T17:10:35.194Z,100920.03
2023-04-21T17:13:06.214Z,100917.63
2023-04-21T17:15:36.230Z,100912.28
2023-04-21T17:18:05.940Z,100908.19
2023-04-21T17:20:35.686Z,100921.47
2023-04-21T17:23:08.110Z,100910.59
2023-04-21T17:25:38.254Z,100903.06
2023-04-21T17:28:08.307Z,100910.75
2023-04-21T17:30:37.865Z,100908.75
2023-04-21T17:33:15.898Z,100911.66
2023-04-21T17:36:02.245Z,100900.69
2023-04-21T17:38:35.493Z,100912.28
2023-04-21T17:41:06.991Z,100903.91
2023-04-21T17:43:36.961Z,100906.13
2023-04-21T17:46:08.299Z,100904.75
2023-04-21T17:48:38.127Z,100900.69
2023-04-21T17:51:07.856Z,100901.22
2023-04-21T17:53:40.164Z,100902.03
2023-04-21T17:56:11.549Z,100903.44
2023-04-21T17:58:41.535Z,100901.94
2023-04-21T18:01:11.398Z,100903.81
2023-04-21T18:03:42.384Z,100897.03
2023-04-21T18:06:16.096Z,100903.53
2023-04-21T18:08:48.320Z,100897.00
2023-04-21T18:11:17.946Z,100900.00
2023-04-21T18:13:47.583Z,100893.22
2023-04-21T18:16:17.332Z,100900.59
2023-04-21T18:18:48.941Z,100908.25
2023-04-21T18:21:18.728Z,100908.75
2023-04-21T18:23:51.195Z,100905.22
2023-04-21T18:26:20.960Z,100903.06
2023-04-21T18:28:50.675Z,100900.66
2023-04-21T18:31:21.841Z,100905.53
2023-04-21T18:33:51.541Z,100899.91
2023-04-21T18:36:21.089Z,100902.81
2023-04-21T18:38:53.262Z,100902.53
2023-04-21T18:41:22.866Z,100903.94
2023-04-21T18:43:52.339Z,100901.16
2023-04-21T18:46:21.994Z,100910.25
2023-04-21T18:48:51.573Z,100902.69
2023-04-21T18:51:21.114Z,100902.97
2023-04-21T18:53:53.261Z,100905.41
2023-04-21T18:56:22.714Z,100904.13
2023-04-21T18:58:52.188Z,100905.44
2023-04-21T19:01:22.145Z,100898.19
2023-04-21T19:03:51.855Z,100898.09
2023-04-21T19:06:21.668Z,100904.88
2023-04-21T19:08:53.865Z,100892.34
2023-04-21T19:11:23.467Z,100906.09
2023-04-21T19:13:52.922Z,100901.78
2023-04-21T19:16:23.055Z,100902.63
2023-04-21T19:18:52.704Z,100903.38
2023-04-21T19:21:22.224Z,100897.00
2023-04-21T19:23:55.122Z,100899.50
2023-04-21T19:26:24.702Z,100900.75
2023-04-21T19:28:54.753Z,100904.81
2023-04-21T19:31:24.611Z,100896.84
2023-04-21T19:33:54.235Z,100902.31
2023-04-21T19:36:23.912Z,100899.66
2023-04-21T19:38:56.030Z,100901.69
2023-04-21T19:41:25.558Z,100891.94
2023-04-21T19:43:55.022Z,100906.56
2023-04-21T19:46:25.612Z,100902.56
2023-04-21T19:48:55.105Z,100908.16
2023-04-21T19:51:24.627Z,100904.19
2023-04-21T19:54:10.169Z,100907.41
2023-04-21T19:56:41.340Z,100906.28
2023-04-21T19:59:11.052Z,100901.81
2023-04-21T20:01:40.585Z,100902.00
2023-04-21T20:04:12.093Z,100894.47
2023-04-21T20:06:42.437Z,100899.28
2023-04-21T20:09:14.503Z,100904.63
2023-04-21T20:11:44.159Z,100899.78
2023-04-21T20:14:13.898Z,100901.16
2023-04-21T20:16:45.664Z,100902.63
2023-04-21T20:19:17.445Z,100892.84
2023-04-21T20:21:47.029Z,100889.38
2023-04-21T20:24:19.436Z,100900.69
2023-04-21T20:26:48.972Z,100904.72
2023-04-21T20:29:18.826Z,100903.69
2023-04-21T20:31:48.477Z,100906.66
2023-04-21T20:34:18.026Z,100908.09
2023-04-21T20:36:47.743Z,100914.78
2023-04-21T20:39:20.773Z,100900.66
2023-04-21T20:42:00.941Z,100903.72
2023-04-21T20:44:38.893Z,100914.22
2023-04-21T20:47:08.659Z,100899.41
2023-04-21T20:49:38.470Z,100908.69
2023-04-21T20:52:08.507Z,100905.16
2023-04-21T20:54:40.898Z,100907.31
2023-04-21T20:57:12.322Z,100904.63
2023-04-21T20:59:41.971Z,100900.84
2023-04-21T21:02:11.740Z,100907.59
2023-04-21T21:04:41.552Z,100900.06
2023-04-21T21:07:11.240Z,100907.34
2023-04-21T21:09:43.468Z,100909.50
2023-04-21T21:12:12.979Z,100902.25
2023-04-21T21:14:42.768Z,100908.69
2023-04-21T21:17:13.316Z,100900.75
2023-04-21T21:19:43.389Z,100895.66
2023-04-21T21:22:12.856Z,100902.75
2023-04-21T21:24:45.001Z,100903.03
2023-04-21T21:27:15.004Z,100904.91
2023-04-21T21:29:45.156Z,100908.69
2023-04-21T21:32:14.650Z,100908.69
2023-04-21T21:34:44.145Z,100908.69
2023-04-21T21:37:13.712Z,100907.91
2023-04-21T21:39:45.797Z,100898.66
2023-04-21T21:42:15.674Z,100903.09
2023-04-21T21:44:45.109Z,100909.50
2023-04-21T21:47:14.529Z,100903.84
2023-04-21T21:49:44.123Z,100901.72
2023-04-21T21:52:15.142Z,100899.50
2023-04-21T21:54:47.218Z,100904.69
2023-04-21T21:57:17.042Z,100904.69
2023-04-21T21:59:47.245Z,100899.03
2023-04-21T22:02:16.755Z,100903.91
2023-04-21T22:04:46.352Z,100899.00
2023-04-21T22:07:15.994Z,100901.69
2023-04-21T22:09:48.056Z,100905.25
2023-04-21T22:12:17.504Z,100902.84
2023-04-21T22:14:47.313Z,100905.81
2023-04-21T22:17:17.675Z,100907.44
2023-04-21T22:19:47.710Z,100906.09
2023-04-21T22:22:18.013Z,100907.44
2023-04-21T22:24:50.287Z,100907.69
2023-04-21T22:27:19.754Z,100909.28
2023-04-21T22:29:49.205Z,100912.03
2023-04-21T22:32:18.618Z,100906.34
2023-04-21T22:34:48.010Z,100905.53
2023-04-21T22:37:17.389Z,100905.81
2023-04-21T22:39:46.790Z,100906.34
2023-04-21T22:42:18.894Z,100907.16
2023-04-21T22:44:48.509Z,100908.81
2023-04-21T22:47:17.951Z,100907.69
2023-04-21T22:49:47.354Z,100905.53
2023-04-21T22:52:16.937Z,100904.47
2023-04-21T22:54:46.356Z,100912.06
2023-04-21T22:57:18.429Z,100908.78
2023-04-21T22:59:48.103Z,100901.50
2023-04-21T23:02:17.657Z,100895.78
2023-04-21T23:04:47.171Z,100889.03
2023-04-21T23:07:16.590Z,100892.56
2023-04-21T23:09:46.087Z,100888.50
2023-04-21T23:12:18.238Z,100886.31
2023-04-21T23:14:48.480Z,100887.13
2023-04-21T23:17:18.012Z,100882.78
2023-04-21T23:19:47.531Z,100883.59
2023-04-21T23:22:17.217Z,100878.19
2023-04-21T23:24:46.834Z,100874.38
2023-04-21T23:27:18.903Z,100873.59
2023-04-21T23:29:48.448Z,100868.69
2023-04-21T23:32:17.997Z,100867.06
2023-04-21T23:34:47.488Z,100871.94
2023-04-21T23:37:17.018Z,100866.50
2023-04-21T23:39:46.527Z,100867.88
2023-04-21T23:42:18.693Z,100862.44
2023-04-21T23:44:48.248Z,100860.56
2023-04-21T23:47:17.694Z,100857.34
2023-04-21T23:49:47.389Z,100859.75
2023-04-21T23:52:17.058Z,100856.75
2023-04-21T23:54:46.571Z,100854.88
2023-04-21T23:57:18.719Z,100849.16
2023-04-21T23:59:48.189Z,100844.84
